sensor_id;sensor_type;location;lat;lon;timestamp;P1;durP1;ratioP1;P2;durP2;ratioP2
42146;SDS011;27815;43.410;11.852;2023-07-24T00:07:36;8.05;;;4.47;;
42146;SDS011;27815;43.410;11.852;2023-07-24T00:11:41;9.40;;;5.00;;
42146;SDS011;27815;43.410;11.852;2023-07-24T00:15:44;8.63;;;5.18;;
42146;SDS011;27815;43.410;11.852;2023-07-24T00:19:49;12.18;;;5.13;;
42146;SDS011;27815;43.410;11.852;2023-07-24T00:23:54;8.25;;;5.57;;
42146;SDS011;27815;43.410;11.852;2023-07-24T00:27:57;7.70;;;5.25;;
42146;SDS011;27815;43.410;11.852;2023-07-24T00:32:01;8.32;;;5.70;;
42146;SDS011;27815;43.410;11.852;2023-07-24T00:36:04;8.35;;;5.07;;
42146;SDS011;27815;43.410;11.852;2023-07-24T00:40:08;8.95;;;5.32;;
42146;SDS011;27815;43.410;11.852;2023-07-24T00:44:11;7.05;;;4.97;;
42146;SDS011;27815;43.410;11.852;2023-07-24T00:48:17;7.40;;;5.17;;
42146;SDS011;27815;43.410;11.852;2023-07-24T00:52:23;8.82;;;5.28;;
42146;SDS011;27815;43.410;11.852;2023-07-24T00:56:27;8.02;;;4.85;;
42146;SDS011;27815;43.410;11.852;2023-07-24T01:00:34;7.90;;;5.07;;
42146;SDS011;27815;43.410;11.852;2023-07-24T01:04:38;8.65;;;5.10;;
42146;SDS011;27815;43.410;11.852;2023-07-24T01:08:42;7.55;;;5.28;;
42146;SDS011;27815;43.410;11.852;2023-07-24T01:17:07;10.18;;;5.82;;
42146;SDS011;27815;43.410;11.852;2023-07-24T01:21:12;10.85;;;5.80;;
42146;SDS011;27815;43.410;11.852;2023-07-24T01:29:37;7.82;;;5.20;;
42146;SDS011;27815;43.410;11.852;2023-07-24T01:33:40;8.35;;;5.10;;
42146;SDS011;27815;43.410;11.852;2023-07-24T01:37:43;7.93;;;5.47;;
42146;SDS011;27815;43.410;11.852;2023-07-24T01:41:48;7.57;;;5.05;;
42146;SDS011;27815;43.410;11.852;2023-07-24T01:45:52;9.82;;;6.07;;
42146;SDS011;27815;43.410;11.852;2023-07-24T01:49:56;11.45;;;6.38;;
42146;SDS011;27815;43.410;11.852;2023-07-24T01:54:00;8.43;;;5.95;;
42146;SDS011;27815;43.410;11.852;2023-07-24T01:58:05;8.80;;;5.55;;
42146;SDS011;27815;43.410;11.852;2023-07-24T02:02:08;10.93;;;5.60;;
42146;SDS011;27815;43.410;11.852;2023-07-24T02:06:11;9.82;;;5.38;;
42146;SDS011;27815;43.410;11.852;2023-07-24T02:10:16;9.15;;;6.18;;
42146;SDS011;27815;43.410;11.852;2023-07-24T02:14:22;8.73;;;5.57;;
42146;SDS011;27815;43.410;11.852;2023-07-24T02:18:29;7.70;;;5.43;;
42146;SDS011;27815;43.410;11.852;2023-07-24T02:22:33;10.43;;;6.47;;
42146;SDS011;27815;43.410;11.852;2023-07-24T02:26:40;7.88;;;5.45;;
42146;SDS011;27815;43.410;11.852;2023-07-24T02:30:47;8.38;;;5.80;;
42146;SDS011;27815;43.410;11.852;2023-07-24T02:34:52;7.95;;;6.05;;
42146;SDS011;27815;43.410;11.852;2023-07-24T02:38:58;12.27;;;6.17;;
42146;SDS011;27815;43.410;11.852;2023-07-24T02:43:01;10.82;;;5.72;;
42146;SDS011;27815;43.410;11.852;2023-07-24T02:47:04;9.07;;;6.10;;
42146;SDS011;27815;43.410;11.852;2023-07-24T02:51:07;12.65;;;6.43;;
42146;SDS011;27815;43.410;11.852;2023-07-24T02:55:12;11.32;;;6.70;;
42146;SDS011;27815;43.410;11.852;2023-07-24T02:59:18;10.98;;;6.22;;
42146;SDS011;27815;43.410;11.852;2023-07-24T03:03:24;11.23;;;6.93;;
42146;SDS011;27815;43.410;11.852;2023-07-24T03:07:29;10.43;;;6.60;;
42146;SDS011;27815;43.410;11.852;2023-07-24T03:11:32;9.65;;;6.25;;
42146;SDS011;27815;43.410;11.852;2023-07-24T03:15:38;9.50;;;5.97;;
42146;SDS011;27815;43.410;11.852;2023-07-24T03:19:43;11.38;;;6.82;;
42146;SDS011;27815;43.410;11.852;2023-07-24T03:23:47;11.50;;;6.22;;
42146;SDS011;27815;43.410;11.852;2023-07-24T03:27:49;12.63;;;7.15;;
42146;SDS011;27815;43.410;11.852;2023-07-24T03:31:52;11.98;;;7.30;;
42146;SDS011;27815;43.410;11.852;2023-07-24T03:35:56;11.32;;;6.50;;
42146;SDS011;27815;43.410;11.852;2023-07-24T03:40:03;11.02;;;6.38;;
42146;SDS011;27815;43.410;11.852;2023-07-24T03:44:06;10.98;;;6.43;;
42146;SDS011;27815;43.410;11.852;2023-07-24T03:48:11;10.63;;;6.43;;
42146;SDS011;27815;43.410;11.852;2023-07-24T03:52:22;11.07;;;6.65;;
42146;SDS011;27815;43.410;11.852;2023-07-24T03:56:26;14.43;;;8.48;;
42146;SDS011;27815;43.410;11.852;2023-07-24T04:00:34;19.95;;;9.40;;
42146;SDS011;27815;43.410;11.852;2023-07-24T04:04:43;14.73;;;8.18;;
42146;SDS011;27815;43.410;11.852;2023-07-24T04:08:47;13.60;;;7.70;;
42146;SDS011;27815;43.410;11.852;2023-07-24T04:12:50;16.13;;;8.57;;
42146;SDS011;27815;43.410;11.852;2023-07-24T04:16:53;15.80;;;8.98;;
42146;SDS011;27815;43.410;11.852;2023-07-24T04:20:58;14.73;;;7.95;;
42146;SDS011;27815;43.410;11.852;2023-07-24T04:25:00;13.38;;;8.48;;
42146;SDS011;27815;43.410;11.852;2023-07-24T04:29:04;13.43;;;7.85;;
42146;SDS011;27815;43.410;11.852;2023-07-24T04:33:07;13.18;;;8.73;;
42146;SDS011;27815;43.410;11.852;2023-07-24T04:37:10;10.90;;;7.80;;
42146;SDS011;27815;43.410;11.852;2023-07-24T04:41:14;13.30;;;8.55;;
42146;SDS011;27815;43.410;11.852;2023-07-24T04:45:18;12.27;;;8.63;;
42146;SDS011;27815;43.410;11.852;2023-07-24T04:49:25;14.30;;;9.00;;
42146;SDS011;27815;43.410;11.852;2023-07-24T04:53:28;13.40;;;7.90;;
42146;SDS011;27815;43.410;11.852;2023-07-24T04:57:31;16.70;;;8.27;;
42146;SDS011;27815;43.410;11.852;2023-07-24T05:01:34;15.40;;;8.73;;
42146;SDS011;27815;43.410;11.852;2023-07-24T05:05:37;10.57;;;6.72;;
42146;SDS011;27815;43.410;11.852;2023-07-24T05:09:44;10.98;;;7.90;;
42146;SDS011;27815;43.410;11.852;2023-07-24T05:13:47;12.45;;;8.50;;
42146;SDS011;27815;43.410;11.852;2023-07-24T05:17:50;16.67;;;9.32;;
42146;SDS011;27815;43.410;11.852;2023-07-24T05:21:53;16.45;;;8.98;;
42146;SDS011;27815;43.410;11.852;2023-07-24T05:26:00;18.02;;;9.00;;
42146;SDS011;27815;43.410;11.852;2023-07-24T05:30:04;13.20;;;8.20;;
42146;SDS011;27815;43.410;11.852;2023-07-24T05:34:08;12.52;;;8.20;;
42146;SDS011;27815;43.410;11.852;2023-07-24T05:38:11;15.15;;;8.90;;
42146;SDS011;27815;43.410;11.852;2023-07-24T05:42:14;16.98;;;8.95;;
42146;SDS011;27815;43.410;11.852;2023-07-24T05:46:17;13.93;;;8.82;;
42146;SDS011;27815;43.410;11.852;2023-07-24T05:50:20;14.60;;;10.45;;
42146;SDS011;27815;43.410;11.852;2023-07-24T05:54:23;13.52;;;8.63;;
42146;SDS011;27815;43.410;11.852;2023-07-24T05:58:26;18.50;;;9.95;;
42146;SDS011;27815;43.410;11.852;2023-07-24T06:02:29;13.57;;;9.77;;
42146;SDS011;27815;43.410;11.852;2023-07-24T06:06:32;18.35;;;10.23;;
42146;SDS011;27815;43.410;11.852;2023-07-24T06:10:35;16.98;;;10.73;;
42146;SDS011;27815;43.410;11.852;2023-07-24T06:14:38;16.02;;;10.73;;
42146;SDS011;27815;43.410;11.852;2023-07-24T06:18:44;15.35;;;10.82;;
42146;SDS011;27815;43.410;11.852;2023-07-24T06:22:47;17.08;;;10.52;;
42146;SDS011;27815;43.410;11.852;2023-07-24T06:26:50;14.15;;;9.43;;
42146;SDS011;27815;43.410;11.852;2023-07-24T06:30:53;11.13;;;8.73;;
42146;SDS011;27815;43.410;11.852;2023-07-24T06:34:56;11.27;;;8.10;;
42146;SDS011;27815;43.410;11.852;2023-07-24T06:38:59;12.90;;;8.50;;
42146;SDS011;27815;43.410;11.852;2023-07-24T06:43:02;12.05;;;7.93;;
42146;SDS011;27815;43.410;11.852;2023-07-24T06:47:05;13.15;;;7.75;;
42146;SDS011;27815;43.410;11.852;2023-07-24T06:51:08;10.88;;;7.47;;
42146;SDS011;27815;43.410;11.852;2023-07-24T06:55:11;13.25;;;8.27;;
42146;SDS011;27815;43.410;11.852;2023-07-24T06:59:14;13.32;;;8.13;;
42146;SDS011;27815;43.410;11.852;2023-07-24T07:03:17;16.52;;;9.27;;
42146;SDS011;27815;43.410;11.852;2023-07-24T07:07:20;12.90;;;8.40;;
42146;SDS011;27815;43.410;11.852;2023-07-24T07:11:23;14.10;;;9.25;;
42146;SDS011;27815;43.410;11.852;2023-07-24T07:15:26;9.77;;;7.35;;
42146;SDS011;27815;43.410;11.852;2023-07-24T07:19:29;10.45;;;6.57;;
42146;SDS011;27815;43.410;11.852;2023-07-24T07:23:32;7.50;;;6.20;;
42146;SDS011;27815;43.410;11.852;2023-07-24T07:27:38;11.40;;;6.65;;
42146;SDS011;27815;43.410;11.852;2023-07-24T07:31:41;11.57;;;6.40;;
42146;SDS011;27815;43.410;11.852;2023-07-24T07:35:44;10.55;;;5.80;;
42146;SDS011;27815;43.410;11.852;2023-07-24T07:39:47;9.15;;;5.55;;
42146;SDS011;27815;43.410;11.852;2023-07-24T07:43:50;12.18;;;5.38;;
42146;SDS011;27815;43.410;11.852;2023-07-24T07:47:53;11.27;;;5.22;;
42146;SDS011;27815;43.410;11.852;2023-07-24T07:51:56;10.77;;;5.45;;
42146;SDS011;27815;43.410;11.852;2023-07-24T07:56:01;11.05;;;5.15;;
42146;SDS011;27815;43.410;11.852;2023-07-24T08:00:04;10.45;;;4.88;;
42146;SDS011;27815;43.410;11.852;2023-07-24T08:04:10;14.00;;;5.45;;
42146;SDS011;27815;43.410;11.852;2023-07-24T08:08:13;11.00;;;4.88;;
42146;SDS011;27815;43.410;11.852;2023-07-24T08:12:19;8.48;;;5.00;;
42146;SDS011;27815;43.410;11.852;2023-07-24T08:16:25;9.20;;;4.65;;
42146;SDS011;27815;43.410;11.852;2023-07-24T08:20:29;9.20;;;4.43;;
42146;SDS011;27815;43.410;11.852;2023-07-24T08:24:36;8.98;;;4.88;;
42146;SDS011;27815;43.410;11.852;2023-07-24T08:28:39;10.00;;;4.30;;
42146;SDS011;27815;43.410;11.852;2023-07-24T08:32:46;8.32;;;4.03;;
42146;SDS011;27815;43.410;11.852;2023-07-24T08:36:54;8.00;;;3.45;;
42146;SDS011;27815;43.410;11.852;2023-07-24T08:41:05;8.98;;;4.13;;
42146;SDS011;27815;43.410;11.852;2023-07-24T08:45:11;13.40;;;4.05;;
42146;SDS011;27815;43.410;11.852;2023-07-24T08:49:16;10.52;;;4.20;;
42146;SDS011;27815;43.410;11.852;2023-07-24T08:53:19;10.10;;;3.78;;
42146;SDS011;27815;43.410;11.852;2023-07-24T08:57:24;9.25;;;3.88;;
42146;SDS011;27815;43.410;11.852;2023-07-24T09:01:27;9.77;;;3.47;;
42146;SDS011;27815;43.410;11.852;2023-07-24T09:09:35;14.30;;;4.10;;
42146;SDS011;27815;43.410;11.852;2023-07-24T09:13:42;9.52;;;3.45;;
42146;SDS011;27815;43.410;11.852;2023-07-24T09:17:56;6.53;;;3.37;;
42146;SDS011;27815;43.410;11.852;2023-07-24T09:26:16;7.07;;;3.72;;
42146;SDS011;27815;43.410;11.852;2023-07-24T09:30:24;10.73;;;3.65;;
42146;SDS011;27815;43.410;11.852;2023-07-24T09:34:28;10.03;;;3.80;;
42146;SDS011;27815;43.410;11.852;2023-07-24T09:38:31;10.50;;;3.90;;
42146;SDS011;27815;43.410;11.852;2023-07-24T09:42:38;14.90;;;4.72;;
42146;SDS011;27815;43.410;11.852;2023-07-24T09:47:02;10.97;;;4.17;;
42146;SDS011;27815;43.410;11.852;2023-07-24T09:51:26;9.55;;;3.92;;
42146;SDS011;27815;43.410;11.852;2023-07-24T09:55:35;9.25;;;3.33;;
42146;SDS011;27815;43.410;11.852;2023-07-24T09:59:46;10.32;;;3.97;;
42146;SDS011;27815;43.410;11.852;2023-07-24T10:03:50;8.98;;;3.15;;
42146;SDS011;27815;43.410;11.852;2023-07-24T10:07:53;14.68;;;5.00;;
42146;SDS011;27815;43.410;11.852;2023-07-24T10:11:57;10.30;;;3.75;;
42146;SDS011;27815;43.410;11.852;2023-07-24T10:16:00;12.35;;;3.60;;
42146;SDS011;27815;43.410;11.852;2023-07-24T10:20:06;15.15;;;4.35;;
42146;SDS011;27815;43.410;11.852;2023-07-24T10:24:11;9.60;;;4.00;;
42146;SDS011;27815;43.410;11.852;2023-07-24T10:28:32;14.32;;;3.70;;
42146;SDS011;27815;43.410;11.852;2023-07-24T10:32:47;10.02;;;4.05;;
42146;SDS011;27815;43.410;11.852;2023-07-24T10:37:02;11.13;;;3.97;;
42146;SDS011;27815;43.410;11.852;2023-07-24T10:41:06;8.82;;;3.80;;
42146;SDS011;27815;43.410;11.852;2023-07-24T10:45:10;14.82;;;4.18;;
42146;SDS011;27815;43.410;11.852;2023-07-24T10:49:14;14.02;;;4.03;;
42146;SDS011;27815;43.410;11.852;2023-07-24T10:53:23;12.25;;;4.20;;
42146;SDS011;27815;43.410;11.852;2023-07-24T10:57:26;11.60;;;4.78;;
42146;SDS011;27815;43.410;11.852;2023-07-24T11:01:31;13.70;;;3.80;;
42146;SDS011;27815;43.410;11.852;2023-07-24T11:05:39;10.70;;;3.67;;
42146;SDS011;27815;43.410;11.852;2023-07-24T11:09:43;10.70;;;3.92;;
42146;SDS011;27815;43.410;11.852;2023-07-24T11:17:51;13.50;;;3.85;;
42146;SDS011;27815;43.410;11.852;2023-07-24T11:21:54;16.67;;;4.32;;
42146;SDS011;27815;43.410;11.852;2023-07-24T11:25:57;11.43;;;4.25;;
42146;SDS011;27815;43.410;11.852;2023-07-24T11:30:00;11.27;;;3.75;;
42146;SDS011;27815;43.410;11.852;2023-07-24T11:34:05;12.75;;;4.28;;
42146;SDS011;27815;43.410;11.852;2023-07-24T11:38:09;9.23;;;3.70;;
42146;SDS011;27815;43.410;11.852;2023-07-24T11:42:12;11.05;;;4.03;;
42146;SDS011;27815;43.410;11.852;2023-07-24T11:46:22;16.42;;;4.18;;
42146;SDS011;27815;43.410;11.852;2023-07-24T11:50:29;14.38;;;4.57;;
42146;SDS011;27815;43.410;11.852;2023-07-24T11:54:36;11.20;;;3.53;;
42146;SDS011;27815;43.410;11.852;2023-07-24T11:58:39;10.20;;;4.07;;
42146;SDS011;27815;43.410;11.852;2023-07-24T12:02:42;12.45;;;4.10;;
42146;SDS011;27815;43.410;11.852;2023-07-24T12:06:45;8.73;;;3.83;;
42146;SDS011;27815;43.410;11.852;2023-07-24T12:10:48;10.73;;;4.38;;
42146;SDS011;27815;43.410;11.852;2023-07-24T12:14:51;16.30;;;4.93;;
42146;SDS011;27815;43.410;11.852;2023-07-24T12:18:54;9.90;;;3.92;;
42146;SDS011;27815;43.410;11.852;2023-07-24T12:22:57;12.05;;;3.70;;
42146;SDS011;27815;43.410;11.852;2023-07-24T12:27:00;13.27;;;3.90;;
42146;SDS011;27815;43.410;11.852;2023-07-24T12:31:03;16.13;;;4.32;;
42146;SDS011;27815;43.410;11.852;2023-07-24T12:35:08;14.18;;;3.50;;
42146;SDS011;27815;43.410;11.852;2023-07-24T12:39:12;12.73;;;4.00;;
42146;SDS011;27815;43.410;11.852;2023-07-24T12:43:15;11.60;;;3.88;;
42146;SDS011;27815;43.410;11.852;2023-07-24T12:47:18;7.97;;;4.00;;
42146;SDS011;27815;43.410;11.852;2023-07-24T12:51:21;12.18;;;3.75;;
42146;SDS011;27815;43.410;11.852;2023-07-24T12:55:24;12.55;;;3.72;;
42146;SDS011;27815;43.410;11.852;2023-07-24T12:59:27;10.02;;;4.00;;
42146;SDS011;27815;43.410;11.852;2023-07-24T13:03:30;9.93;;;3.58;;
42146;SDS011;27815;43.410;11.852;2023-07-24T13:07:33;8.98;;;4.30;;
42146;SDS011;27815;43.410;11.852;2023-07-24T13:11:37;14.43;;;4.13;;
42146;SDS011;27815;43.410;11.852;2023-07-24T13:15:39;17.73;;;4.38;;
42146;SDS011;27815;43.410;11.852;2023-07-24T13:19:42;12.07;;;4.03;;
42146;SDS011;27815;43.410;11.852;2023-07-24T13:23:46;13.02;;;3.67;;
42146;SDS011;27815;43.410;11.852;2023-07-24T13:27:49;10.63;;;4.25;;
42146;SDS011;27815;43.410;11.852;2023-07-24T13:31:52;11.45;;;4.35;;
42146;SDS011;27815;43.410;11.852;2023-07-24T13:35:55;12.75;;;3.97;;
42146;SDS011;27815;43.410;11.852;2023-07-24T13:39:58;10.68;;;4.25;;
42146;SDS011;27815;43.410;11.852;2023-07-24T13:44:01;12.30;;;4.07;;
42146;SDS011;27815;43.410;11.852;2023-07-24T13:48:04;14.35;;;4.15;;
42146;SDS011;27815;43.410;11.852;2023-07-24T13:52:07;14.55;;;4.07;;
42146;SDS011;27815;43.410;11.852;2023-07-24T13:56:10;10.98;;;3.83;;
42146;SDS011;27815;43.410;11.852;2023-07-24T14:00:13;10.73;;;4.13;;
42146;SDS011;27815;43.410;11.852;2023-07-24T14:04:17;9.13;;;3.83;;
42146;SDS011;27815;43.410;11.852;2023-07-24T14:08:20;13.82;;;3.97;;
42146;SDS011;27815;43.410;11.852;2023-07-24T14:12:23;13.02;;;4.22;;
42146;SDS011;27815;43.410;11.852;2023-07-24T14:16:26;14.68;;;4.15;;
42146;SDS011;27815;43.410;11.852;2023-07-24T14:20:32;10.05;;;3.90;;
42146;SDS011;27815;43.410;11.852;2023-07-24T14:24:35;15.98;;;4.47;;
42146;SDS011;27815;43.410;11.852;2023-07-24T14:28:38;9.27;;;3.60;;
42146;SDS011;27815;43.410;11.852;2023-07-24T14:32:41;14.45;;;3.78;;
42146;SDS011;27815;43.410;11.852;2023-07-24T14:36:44;11.30;;;4.18;;
42146;SDS011;27815;43.410;11.852;2023-07-24T14:40:48;18.58;;;4.20;;
42146;SDS011;27815;43.410;11.852;2023-07-24T14:44:51;14.35;;;4.05;;
42146;SDS011;27815;43.410;11.852;2023-07-24T14:48:54;13.52;;;3.85;;
42146;SDS011;27815;43.410;11.852;2023-07-24T14:52:57;11.45;;;3.75;;
42146;SDS011;27815;43.410;11.852;2023-07-24T14:57:00;13.57;;;4.03;;
42146;SDS011;27815;43.410;11.852;2023-07-24T15:01:20;13.02;;;4.25;;
42146;SDS011;27815;43.410;11.852;2023-07-24T15:05:23;8.15;;;4.15;;
42146;SDS011;27815;43.410;11.852;2023-07-24T15:13:31;11.60;;;4.25;;
42146;SDS011;27815;43.410;11.852;2023-07-24T15:17:34;11.15;;;4.00;;
42146;SDS011;27815;43.410;11.852;2023-07-24T15:21:37;12.35;;;4.50;;
42146;SDS011;27815;43.410;11.852;2023-07-24T15:25:40;14.20;;;4.75;;
42146;SDS011;27815;43.410;11.852;2023-07-24T15:29:44;15.10;;;4.72;;
42146;SDS011;27815;43.410;11.852;2023-07-24T15:33:49;8.68;;;3.63;;
42146;SDS011;27815;43.410;11.852;2023-07-24T15:37:52;21.45;;;4.35;;
42146;SDS011;27815;43.410;11.852;2023-07-24T15:41:55;15.18;;;4.35;;
42146;SDS011;27815;43.410;11.852;2023-07-24T15:46:04;19.90;;;4.45;;
42146;SDS011;27815;43.410;11.852;2023-07-24T15:50:19;13.00;;;4.30;;
42146;SDS011;27815;43.410;11.852;2023-07-24T15:54:23;12.88;;;4.43;;
42146;SDS011;27815;43.410;11.852;2023-07-24T15:58:28;13.00;;;4.43;;
42146;SDS011;27815;43.410;11.852;2023-07-24T16:02:31;16.52;;;4.82;;
42146;SDS011;27815;43.410;11.852;2023-07-24T16:06:41;16.77;;;4.38;;
42146;SDS011;27815;43.410;11.852;2023-07-24T16:10:47;12.00;;;4.43;;
42146;SDS011;27815;43.410;11.852;2023-07-24T16:14:51;16.13;;;4.70;;
42146;SDS011;27815;43.410;11.852;2023-07-24T16:23:34;17.33;;;4.63;;
42146;SDS011;27815;43.410;11.852;2023-07-24T16:27:39;13.48;;;4.40;;
42146;SDS011;27815;43.410;11.852;2023-07-24T16:31:45;13.38;;;5.05;;
42146;SDS011;27815;43.410;11.852;2023-07-24T16:35:55;12.18;;;4.47;;
42146;SDS011;27815;43.410;11.852;2023-07-24T16:40:03;13.25;;;4.65;;
42146;SDS011;27815;43.410;11.852;2023-07-24T16:44:06;9.55;;;4.22;;
42146;SDS011;27815;43.410;11.852;2023-07-24T16:48:15;13.90;;;4.72;;
42146;SDS011;27815;43.410;11.852;2023-07-24T16:52:18;15.45;;;5.13;;
42146;SDS011;27815;43.410;11.852;2023-07-24T16:56:21;15.23;;;4.90;;
42146;SDS011;27815;43.410;11.852;2023-07-24T17:00:28;14.05;;;5.15;;
42146;SDS011;27815;43.410;11.852;2023-07-24T17:04:33;17.02;;;4.88;;
42146;SDS011;27815;43.410;11.852;2023-07-24T17:08:37;14.75;;;4.97;;
42146;SDS011;27815;43.410;11.852;2023-07-24T17:16:47;19.53;;;6.13;;
42146;SDS011;27815;43.410;11.852;2023-07-24T17:20:53;16.15;;;4.65;;
42146;SDS011;27815;43.410;11.852;2023-07-24T17:24:56;17.42;;;5.25;;
42146;SDS011;27815;43.410;11.852;2023-07-24T17:29:01;11.80;;;4.03;;
42146;SDS011;27815;43.410;11.852;2023-07-24T17:33:05;10.18;;;3.85;;
42146;SDS011;27815;43.410;11.852;2023-07-24T17:37:10;14.15;;;4.68;;
42146;SDS011;27815;43.410;11.852;2023-07-24T17:41:24;10.10;;;4.90;;
42146;SDS011;27815;43.410;11.852;2023-07-24T17:45:27;15.88;;;5.30;;
42146;SDS011;27815;43.410;11.852;2023-07-24T17:49:34;15.05;;;5.13;;
42146;SDS011;27815;43.410;11.852;2023-07-24T17:53:43;11.27;;;5.18;;
42146;SDS011;27815;43.410;11.852;2023-07-24T17:57:46;15.48;;;4.90;;
42146;SDS011;27815;43.410;11.852;2023-07-24T18:01:52;16.25;;;4.80;;
42146;SDS011;27815;43.410;11.852;2023-07-24T18:05:55;16.63;;;4.90;;
42146;SDS011;27815;43.410;11.852;2023-07-24T18:10:02;13.15;;;5.45;;
42146;SDS011;27815;43.410;11.852;2023-07-24T18:14:11;15.13;;;5.43;;
42146;SDS011;27815;43.410;11.852;2023-07-24T18:18:21;12.30;;;4.85;;
42146;SDS011;27815;43.410;11.852;2023-07-24T18:22:25;16.98;;;5.10;;
42146;SDS011;27815;43.410;11.852;2023-07-24T18:26:28;13.45;;;4.80;;
42146;SDS011;27815;43.410;11.852;2023-07-24T18:30:33;10.45;;;4.20;;
42146;SDS011;27815;43.410;11.852;2023-07-24T18:34:36;13.85;;;4.30;;
42146;SDS011;27815;43.410;11.852;2023-07-24T18:38:42;19.02;;;4.60;;
42146;SDS011;27815;43.410;11.852;2023-07-24T18:42:47;15.63;;;5.00;;
42146;SDS011;27815;43.410;11.852;2023-07-24T18:46:51;16.45;;;4.88;;
42146;SDS011;27815;43.410;11.852;2023-07-24T18:50:56;8.57;;;4.75;;
42146;SDS011;27815;43.410;11.852;2023-07-24T18:55:04;17.02;;;5.07;;
42146;SDS011;27815;43.410;11.852;2023-07-24T18:59:08;14.95;;;5.65;;
42146;SDS011;27815;43.410;11.852;2023-07-24T19:03:11;15.57;;;5.00;;
42146;SDS011;27815;43.410;11.852;2023-07-24T19:07:17;11.43;;;5.07;;
42146;SDS011;27815;43.410;11.852;2023-07-24T19:11:20;12.32;;;5.18;;
42146;SDS011;27815;43.410;11.852;2023-07-24T19:15:23;17.65;;;5.07;;
42146;SDS011;27815;43.410;11.852;2023-07-24T19:19:26;15.82;;;5.57;;
42146;SDS011;27815;43.410;11.852;2023-07-24T19:23:30;12.57;;;4.35;;
42146;SDS011;27815;43.410;11.852;2023-07-24T19:27:33;10.13;;;4.40;;
42146;SDS011;27815;43.410;11.852;2023-07-24T19:31:36;16.50;;;4.45;;
42146;SDS011;27815;43.410;11.852;2023-07-24T19:35:39;13.35;;;3.92;;
42146;SDS011;27815;43.410;11.852;2023-07-24T19:39:42;11.05;;;4.30;;
42146;SDS011;27815;43.410;11.852;2023-07-24T19:43:45;10.15;;;3.58;;
42146;SDS011;27815;43.410;11.852;2023-07-24T19:47:51;17.10;;;3.70;;
42146;SDS011;27815;43.410;11.852;2023-07-24T19:51:55;10.77;;;3.50;;
42146;SDS011;27815;43.410;11.852;2023-07-24T19:55:59;9.93;;;3.00;;
42146;SDS011;27815;43.410;11.852;2023-07-24T20:00:04;8.52;;;2.80;;
42146;SDS011;27815;43.410;11.852;2023-07-24T20:04:07;6.78;;;2.85;;
42146;SDS011;27815;43.410;11.852;2023-07-24T20:08:14;8.38;;;3.22;;
42146;SDS011;27815;43.410;11.852;2023-07-24T20:12:22;9.32;;;3.53;;
42146;SDS011;27815;43.410;11.852;2023-07-24T20:16:25;12.30;;;4.25;;
42146;SDS011;27815;43.410;11.852;2023-07-24T20:20:29;10.65;;;3.47;;
42146;SDS011;27815;43.410;11.852;2023-07-24T20:24:32;9.57;;;2.88;;
42146;SDS011;27815;43.410;11.852;2023-07-24T20:28:35;8.85;;;2.70;;
42146;SDS011;27815;43.410;11.852;2023-07-24T20:32:40;7.35;;;3.03;;
42146;SDS011;27815;43.410;11.852;2023-07-24T20:36:43;8.82;;;2.78;;
42146;SDS011;27815;43.410;11.852;2023-07-24T20:40:46;9.95;;;3.20;;
42146;SDS011;27815;43.410;11.852;2023-07-24T20:44:53;7.05;;;2.80;;
42146;SDS011;27815;43.410;11.852;2023-07-24T20:48:56;13.23;;;3.20;;
42146;SDS011;27815;43.410;11.852;2023-07-24T20:52:59;9.73;;;3.45;;
42146;SDS011;27815;43.410;11.852;2023-07-24T20:57:02;9.73;;;2.75;;
42146;SDS011;27815;43.410;11.852;2023-07-24T21:01:06;13.65;;;3.05;;
42146;SDS011;27815;43.410;11.852;2023-07-24T21:05:10;9.88;;;2.70;;
42146;SDS011;27815;43.410;11.852;2023-07-24T21:09:12;11.02;;;2.85;;
42146;SDS011;27815;43.410;11.852;2023-07-24T21:13:16;12.45;;;3.92;;
42146;SDS011;27815;43.410;11.852;2023-07-24T21:17:19;9.90;;;3.03;;
42146;SDS011;27815;43.410;11.852;2023-07-24T21:21:22;10.65;;;3.38;;
42146;SDS011;27815;43.410;11.852;2023-07-24T21:25:25;12.20;;;3.53;;
42146;SDS011;27815;43.410;11.852;2023-07-24T21:29:28;9.93;;;3.42;;
42146;SDS011;27815;43.410;11.852;2023-07-24T21:33:30;10.15;;;2.90;;
42146;SDS011;27815;43.410;11.852;2023-07-24T21:37:33;8.88;;;3.33;;
42146;SDS011;27815;43.410;11.852;2023-07-24T21:41:36;12.27;;;3.30;;
42146;SDS011;27815;43.410;11.852;2023-07-24T21:45:41;11.93;;;2.88;;
42146;SDS011;27815;43.410;11.852;2023-07-24T21:49:44;11.07;;;3.28;;
42146;SDS011;27815;43.410;11.852;2023-07-24T21:53:47;11.60;;;3.10;;
42146;SDS011;27815;43.410;11.852;2023-07-24T21:57:52;7.78;;;3.08;;
42146;SDS011;27815;43.410;11.852;2023-07-24T22:01:57;11.83;;;2.67;;
42146;SDS011;27815;43.410;11.852;2023-07-24T22:05:59;9.57;;;3.13;;
42146;SDS011;27815;43.410;11.852;2023-07-24T22:10:05;7.80;;;3.33;;
42146;SDS011;27815;43.410;11.852;2023-07-24T22:14:08;13.20;;;2.90;;
42146;SDS011;27815;43.410;11.852;2023-07-24T22:18:11;10.80;;;3.03;;
42146;SDS011;27815;43.410;11.852;2023-07-24T22:22:14;11.90;;;3.60;;
42146;SDS011;27815;43.410;11.852;2023-07-24T22:26:17;10.38;;;2.92;;
42146;SDS011;27815;43.410;11.852;2023-07-24T22:30:20;17.20;;;2.90;;
42146;SDS011;27815;43.410;11.852;2023-07-24T22:34:24;13.68;;;2.90;;
42146;SDS011;27815;43.410;11.852;2023-07-24T22:38:27;11.55;;;3.03;;
42146;SDS011;27815;43.410;11.852;2023-07-24T22:42:31;10.95;;;3.33;;
42146;SDS011;27815;43.410;11.852;2023-07-24T22:46:34;10.95;;;3.22;;
42146;SDS011;27815;43.410;11.852;2023-07-24T22:50:37;8.15;;;2.60;;
42146;SDS011;27815;43.410;11.852;2023-07-24T22:54:39;9.20;;;2.50;;
42146;SDS011;27815;43.410;11.852;2023-07-24T22:59:16;8.43;;;2.65;;
42146;SDS011;27815;43.410;11.852;2023-07-24T23:03:25;11.15;;;3.50;;
42146;SDS011;27815;43.410;11.852;2023-07-24T23:07:28;12.80;;;3.20;;
42146;SDS011;27815;43.410;11.852;2023-07-24T23:11:31;12.25;;;3.83;;
42146;SDS011;27815;43.410;11.852;2023-07-24T23:15:35;8.82;;;3.03;;
42146;SDS011;27815;43.410;11.852;2023-07-24T23:19:38;12.93;;;3.20;;
42146;SDS011;27815;43.410;11.852;2023-07-24T23:23:41;10.57;;;2.50;;
42146;SDS011;27815;43.410;11.852;2023-07-24T23:27:44;10.35;;;2.53;;
42146;SDS011;27815;43.410;11.852;2023-07-24T23:31:47;10.93;;;3.08;;
42146;SDS011;27815;43.410;11.852;2023-07-24T23:35:50;10.90;;;3.08;;
42146;SDS011;27815;43.410;11.852;2023-07-24T23:39:54;8.95;;;2.65;;
42146;SDS011;27815;43.410;11.852;2023-07-24T23:43:57;12.95;;;3.42;;
42146;SDS011;27815;43.410;11.852;2023-07-24T23:48:00;12.88;;;3.75;;
42146;SDS011;27815;43.410;11.852;2023-07-24T23:52:03;10.50;;;3.10;;
42146;SDS011;27815;43.410;11.852;2023-07-24T23:56:07;13.35;;;3.25;;
